Main page
METAR-TAF:

METAR-TAF

Airports :

Amman Civil Airport

Amman, Jordan

latitude: 31-59N, longitude: 035-59E, elevation: 767 m

Current weather observation

The report was made 52 minutes ago, at 08:00 UTC
Wind 8 kt from the East/Southeast
Temperature 17°C
Humidity 42%
Pressure 1017 hPa
Visibility: 6000 m

METAR: OJAM 210800Z 11008KT 6000 NSC 17/04 Q1017 NOSIG

Time: 10:52 (08:52 UTC)

Forecast

The report was made 4 hours and 2 minutes ago, at 04:50 UTC
Forecast valid from 21 at 06 UTC to 22 at 12 UTC
Wind 2 kt from variable directions
Visibility: 5000 m
haze
Temporary
from 21 at 10 UTC to 21 at 18 UTC
Visibility: 4000 m
Probability 30%
from 21 at 12 UTC to 21 at 16 UTC
Wind 6 kt from the East/Southeast
Visibility: 3000 m
widespread dust

TAF: OJAM 210450Z 2106/2212 VRB02KT 5000 HZ NSC TEMPO 2110/2118 4000 PROB30 2112/2116 12006KT 3000 DU

Weather observations and forecasts of more than 4000 airports (METAR and TAF reports).

The available stations are represented by yellow and red dots on the map.

Hover mouse over dot to see the name of the station.

Then click to see weather observations and forecasts.

To change the map : click on the green buttons with a black cross to zoom in, on the green button with a dash to zoom out, or on the green arrows for adjacent maps.


METAR-TAF: